sensor_id;sensor_type;location;lat;lon;timestamp;P1;durP1;ratioP1;P2;durP2;ratioP2
22525;SDS011;11429;50.842;4.386;2023-01-29T00:00:35;47.05;;;27.52;;
22525;SDS011;11429;50.842;4.386;2023-01-29T00:03:01;46.90;;;29.13;;
22525;SDS011;11429;50.842;4.386;2023-01-29T00:05:26;39.35;;;25.90;;
22525;SDS011;11429;50.842;4.386;2023-01-29T00:07:52;48.45;;;28.45;;
22525;SDS011;11429;50.842;4.386;2023-01-29T00:10:18;47.10;;;27.48;;
22525;SDS011;11429;50.842;4.386;2023-01-29T00:12:44;42.72;;;26.60;;
22525;SDS011;11429;50.842;4.386;2023-01-29T00:15:09;46.72;;;27.10;;
22525;SDS011;11429;50.842;4.386;2023-01-29T00:17:35;44.97;;;26.85;;
22525;SDS011;11429;50.842;4.386;2023-01-29T00:20:01;44.53;;;27.33;;
22525;SDS011;11429;50.842;4.386;2023-01-29T00:22:28;43.40;;;26.60;;
22525;SDS011;11429;50.842;4.386;2023-01-29T00:24:54;45.35;;;26.80;;
22525;SDS011;11429;50.842;4.386;2023-01-29T00:27:20;42.80;;;26.23;;
22525;SDS011;11429;50.842;4.386;2023-01-29T00:29:46;46.85;;;28.25;;
22525;SDS011;11429;50.842;4.386;2023-01-29T00:34:57;43.33;;;26.63;;
22525;SDS011;11429;50.842;4.386;2023-01-29T00:37:22;47.15;;;26.95;;
22525;SDS011;11429;50.842;4.386;2023-01-29T00:39:48;43.90;;;27.58;;
22525;SDS011;11429;50.842;4.386;2023-01-29T00:42:14;42.33;;;26.35;;
22525;SDS011;11429;50.842;4.386;2023-01-29T00:44:58;43.97;;;26.35;;
22525;SDS011;11429;50.842;4.386;2023-01-29T00:47:23;43.78;;;27.55;;
22525;SDS011;11429;50.842;4.386;2023-01-29T00:49:57;42.95;;;26.35;;
22525;SDS011;11429;50.842;4.386;2023-01-29T00:52:27;47.33;;;27.65;;
22525;SDS011;11429;50.842;4.386;2023-01-29T00:54:57;45.97;;;27.50;;
22525;SDS011;11429;50.842;4.386;2023-01-29T00:57:24;43.85;;;27.10;;
22525;SDS011;11429;50.842;4.386;2023-01-29T00:59:51;49.22;;;28.95;;
22525;SDS011;11429;50.842;4.386;2023-01-29T01:02:17;46.47;;;27.45;;
22525;SDS011;11429;50.842;4.386;2023-01-29T01:05:02;46.30;;;27.30;;
22525;SDS011;11429;50.842;4.386;2023-01-29T01:07:30;44.85;;;27.88;;
22525;SDS011;11429;50.842;4.386;2023-01-29T01:09:56;47.60;;;28.65;;
22525;SDS011;11429;50.842;4.386;2023-01-29T01:12:40;43.78;;;26.10;;
22525;SDS011;11429;50.842;4.386;2023-01-29T01:15:06;45.45;;;27.15;;
22525;SDS011;11429;50.842;4.386;2023-01-29T01:17:32;46.53;;;27.10;;
22525;SDS011;11429;50.842;4.386;2023-01-29T01:19:58;50.42;;;27.63;;
22525;SDS011;11429;50.842;4.386;2023-01-29T01:22:23;45.13;;;27.55;;
22525;SDS011;11429;50.842;4.386;2023-01-29T01:24:49;49.90;;;27.98;;
22525;SDS011;11429;50.842;4.386;2023-01-29T01:27:15;46.17;;;27.95;;
22525;SDS011;11429;50.842;4.386;2023-01-29T01:29:41;49.13;;;25.75;;
22525;SDS011;11429;50.842;4.386;2023-01-29T01:32:07;46.78;;;26.65;;
22525;SDS011;11429;50.842;4.386;2023-01-29T01:34:32;49.00;;;27.73;;
22525;SDS011;11429;50.842;4.386;2023-01-29T01:36:58;46.75;;;27.67;;
22525;SDS011;11429;50.842;4.386;2023-01-29T01:39:24;46.22;;;25.30;;
22525;SDS011;11429;50.842;4.386;2023-01-29T01:41:50;44.63;;;26.77;;
22525;SDS011;11429;50.842;4.386;2023-01-29T01:47:18;46.22;;;26.48;;
22525;SDS011;11429;50.842;4.386;2023-01-29T01:49:48;45.30;;;26.52;;
22525;SDS011;11429;50.842;4.386;2023-01-29T01:52:14;48.72;;;26.95;;
22525;SDS011;11429;50.842;4.386;2023-01-29T01:54:43;46.28;;;25.58;;
22525;SDS011;11429;50.842;4.386;2023-01-29T01:57:09;45.97;;;26.35;;
22525;SDS011;11429;50.842;4.386;2023-01-29T01:59:42;42.20;;;25.27;;
22525;SDS011;11429;50.842;4.386;2023-01-29T02:02:12;44.53;;;26.15;;
22525;SDS011;11429;50.842;4.386;2023-01-29T02:07:42;40.20;;;23.80;;
22525;SDS011;11429;50.842;4.386;2023-01-29T02:10:30;43.45;;;24.65;;
22525;SDS011;11429;50.842;4.386;2023-01-29T02:13:03;41.70;;;25.10;;
22525;SDS011;11429;50.842;4.386;2023-01-29T02:15:30;44.92;;;24.52;;
22525;SDS011;11429;50.842;4.386;2023-01-29T02:17:55;41.53;;;24.52;;
22525;SDS011;11429;50.842;4.386;2023-01-29T02:20:23;40.58;;;23.80;;
22525;SDS011;11429;50.842;4.386;2023-01-29T02:28:33;40.03;;;24.08;;
22525;SDS011;11429;50.842;4.386;2023-01-29T02:33:57;42.40;;;24.35;;
22525;SDS011;11429;50.842;4.386;2023-01-29T02:36:44;42.13;;;25.00;;
22525;SDS011;11429;50.842;4.386;2023-01-29T02:42:13;42.67;;;24.27;;
22525;SDS011;11429;50.842;4.386;2023-01-29T02:44:47;47.95;;;25.95;;
22525;SDS011;11429;50.842;4.386;2023-01-29T02:55:41;47.95;;;26.80;;
22525;SDS011;11429;50.842;4.386;2023-01-29T02:58:18;45.20;;;25.92;;
22525;SDS011;11429;50.842;4.386;2023-01-29T03:00:49;43.95;;;26.63;;
22525;SDS011;11429;50.842;4.386;2023-01-29T03:03:17;42.92;;;26.15;;
22525;SDS011;11429;50.842;4.386;2023-01-29T03:08:34;47.90;;;27.67;;
22525;SDS011;11429;50.842;4.386;2023-01-29T03:11:06;48.85;;;27.33;;
22525;SDS011;11429;50.842;4.386;2023-01-29T03:18:52;45.00;;;26.30;;
22525;SDS011;11429;50.842;4.386;2023-01-29T03:21:27;50.40;;;27.38;;
22525;SDS011;11429;50.842;4.386;2023-01-29T03:24:25;47.65;;;26.80;;
22525;SDS011;11429;50.842;4.386;2023-01-29T03:27:19;47.38;;;26.67;;
22525;SDS011;11429;50.842;4.386;2023-01-29T03:30:05;46.45;;;26.00;;
22525;SDS011;11429;50.842;4.386;2023-01-29T03:32:52;46.33;;;26.40;;
22525;SDS011;11429;50.842;4.386;2023-01-29T03:35:20;48.72;;;27.05;;
22525;SDS011;11429;50.842;4.386;2023-01-29T03:37:59;45.60;;;26.40;;
22525;SDS011;11429;50.842;4.386;2023-01-29T03:40:26;46.17;;;26.08;;
22525;SDS011;11429;50.842;4.386;2023-01-29T03:43:17;43.92;;;25.00;;
22525;SDS011;11429;50.842;4.386;2023-01-29T03:48:39;48.92;;;26.90;;
22525;SDS011;11429;50.842;4.386;2023-01-29T03:54:17;47.58;;;26.40;;
22525;SDS011;11429;50.842;4.386;2023-01-29T03:57:05;47.05;;;27.23;;
22525;SDS011;11429;50.842;4.386;2023-01-29T03:59:39;45.28;;;25.67;;
22525;SDS011;11429;50.842;4.386;2023-01-29T04:02:34;45.33;;;25.70;;
22525;SDS011;11429;50.842;4.386;2023-01-29T04:05:23;47.67;;;26.42;;
22525;SDS011;11429;50.842;4.386;2023-01-29T04:07:55;49.42;;;26.30;;
22525;SDS011;11429;50.842;4.386;2023-01-29T04:10:26;47.65;;;25.40;;
22525;SDS011;11429;50.842;4.386;2023-01-29T04:13:01;47.72;;;27.15;;
22525;SDS011;11429;50.842;4.386;2023-01-29T04:15:31;52.22;;;27.45;;
22525;SDS011;11429;50.842;4.386;2023-01-29T04:18:02;49.00;;;26.85;;
22525;SDS011;11429;50.842;4.386;2023-01-29T04:20:28;47.92;;;26.48;;
22525;SDS011;11429;50.842;4.386;2023-01-29T04:22:54;48.78;;;26.98;;
22525;SDS011;11429;50.842;4.386;2023-01-29T04:25:23;50.80;;;27.63;;
22525;SDS011;11429;50.842;4.386;2023-01-29T04:36:00;49.70;;;27.27;;
22525;SDS011;11429;50.842;4.386;2023-01-29T04:38:43;45.97;;;26.58;;
22525;SDS011;11429;50.842;4.386;2023-01-29T04:52:11;49.15;;;28.20;;
22525;SDS011;11429;50.842;4.386;2023-01-29T04:59:47;46.08;;;26.83;;
22525;SDS011;11429;50.842;4.386;2023-01-29T05:02:21;46.00;;;26.40;;
22525;SDS011;11429;50.842;4.386;2023-01-29T05:04:50;50.58;;;27.02;;
22525;SDS011;11429;50.842;4.386;2023-01-29T05:07:18;45.97;;;27.35;;
22525;SDS011;11429;50.842;4.386;2023-01-29T05:09:45;48.40;;;26.90;;
22525;SDS011;11429;50.842;4.386;2023-01-29T05:12:12;46.35;;;26.23;;
22525;SDS011;11429;50.842;4.386;2023-01-29T05:14:40;47.05;;;27.58;;
22525;SDS011;11429;50.842;4.386;2023-01-29T05:17:11;50.28;;;27.13;;
22525;SDS011;11429;50.842;4.386;2023-01-29T05:19:40;48.25;;;26.70;;
22525;SDS011;11429;50.842;4.386;2023-01-29T05:22:06;46.10;;;25.83;;
22525;SDS011;11429;50.842;4.386;2023-01-29T05:24:35;47.20;;;25.88;;
22525;SDS011;11429;50.842;4.386;2023-01-29T05:27:01;45.72;;;26.98;;
22525;SDS011;11429;50.842;4.386;2023-01-29T05:29:46;50.78;;;27.40;;
22525;SDS011;11429;50.842;4.386;2023-01-29T05:32:12;50.17;;;27.17;;
22525;SDS011;11429;50.842;4.386;2023-01-29T05:34:39;46.72;;;26.58;;
22525;SDS011;11429;50.842;4.386;2023-01-29T05:37:05;46.78;;;26.75;;
22525;SDS011;11429;50.842;4.386;2023-01-29T05:39:31;46.55;;;26.75;;
22525;SDS011;11429;50.842;4.386;2023-01-29T05:41:57;49.20;;;27.27;;
22525;SDS011;11429;50.842;4.386;2023-01-29T05:44:25;53.42;;;28.35;;
22525;SDS011;11429;50.842;4.386;2023-01-29T05:46:52;51.15;;;28.20;;
22525;SDS011;11429;50.842;4.386;2023-01-29T05:49:18;49.85;;;27.70;;
22525;SDS011;11429;50.842;4.386;2023-01-29T05:51:44;51.17;;;28.35;;
22525;SDS011;11429;50.842;4.386;2023-01-29T05:54:10;55.55;;;29.42;;
22525;SDS011;11429;50.842;4.386;2023-01-29T05:56:37;52.63;;;28.27;;
22525;SDS011;11429;50.842;4.386;2023-01-29T05:59:03;49.92;;;27.45;;
22525;SDS011;11429;50.842;4.386;2023-01-29T06:01:29;50.95;;;28.23;;
22525;SDS011;11429;50.842;4.386;2023-01-29T06:03:54;48.53;;;28.13;;
22525;SDS011;11429;50.842;4.386;2023-01-29T06:06:20;51.80;;;29.42;;
22525;SDS011;11429;50.842;4.386;2023-01-29T06:08:46;50.13;;;28.55;;
22525;SDS011;11429;50.842;4.386;2023-01-29T06:11:12;48.90;;;29.23;;
22525;SDS011;11429;50.842;4.386;2023-01-29T06:13:38;52.65;;;29.65;;
22525;SDS011;11429;50.842;4.386;2023-01-29T06:16:05;48.90;;;28.27;;
22525;SDS011;11429;50.842;4.386;2023-01-29T06:18:32;45.70;;;26.63;;
22525;SDS011;11429;50.842;4.386;2023-01-29T06:21:01;50.65;;;28.45;;
22525;SDS011;11429;50.842;4.386;2023-01-29T06:23:31;49.22;;;29.08;;
22525;SDS011;11429;50.842;4.386;2023-01-29T06:26:00;50.75;;;28.33;;
22525;SDS011;11429;50.842;4.386;2023-01-29T06:28:34;50.05;;;28.92;;
22525;SDS011;11429;50.842;4.386;2023-01-29T06:31:00;53.92;;;29.73;;
22525;SDS011;11429;50.842;4.386;2023-01-29T06:33:27;51.65;;;30.17;;
22525;SDS011;11429;50.842;4.386;2023-01-29T06:35:56;51.08;;;29.60;;
22525;SDS011;11429;50.842;4.386;2023-01-29T06:38:22;48.97;;;29.00;;
22525;SDS011;11429;50.842;4.386;2023-01-29T06:40:48;51.60;;;30.35;;
22525;SDS011;11429;50.842;4.386;2023-01-29T06:43:14;53.85;;;30.92;;
22525;SDS011;11429;50.842;4.386;2023-01-29T06:45:49;52.42;;;29.52;;
22525;SDS011;11429;50.842;4.386;2023-01-29T06:48:16;51.17;;;28.58;;
22525;SDS011;11429;50.842;4.386;2023-01-29T06:50:42;53.42;;;29.08;;
22525;SDS011;11429;50.842;4.386;2023-01-29T06:53:08;52.58;;;29.83;;
22525;SDS011;11429;50.842;4.386;2023-01-29T06:55:34;51.95;;;28.88;;
22525;SDS011;11429;50.842;4.386;2023-01-29T06:58:03;50.00;;;30.58;;
22525;SDS011;11429;50.842;4.386;2023-01-29T07:00:33;48.63;;;27.85;;
22525;SDS011;11429;50.842;4.386;2023-01-29T07:02:59;51.30;;;29.60;;
22525;SDS011;11429;50.842;4.386;2023-01-29T07:05:25;55.28;;;30.48;;
22525;SDS011;11429;50.842;4.386;2023-01-29T07:07:51;52.45;;;29.88;;
22525;SDS011;11429;50.842;4.386;2023-01-29T07:10:17;54.10;;;31.00;;
22525;SDS011;11429;50.842;4.386;2023-01-29T07:12:42;49.38;;;30.00;;
22525;SDS011;11429;50.842;4.386;2023-01-29T07:15:08;52.80;;;30.50;;
22525;SDS011;11429;50.842;4.386;2023-01-29T07:17:36;54.50;;;30.67;;
22525;SDS011;11429;50.842;4.386;2023-01-29T07:20:02;52.67;;;31.05;;
22525;SDS011;11429;50.842;4.386;2023-01-29T07:22:28;51.53;;;28.65;;
22525;SDS011;11429;50.842;4.386;2023-01-29T07:24:54;52.15;;;30.80;;
22525;SDS011;11429;50.842;4.386;2023-01-29T07:27:19;56.17;;;31.58;;
22525;SDS011;11429;50.842;4.386;2023-01-29T07:29:45;54.95;;;30.63;;
22525;SDS011;11429;50.842;4.386;2023-01-29T07:32:11;52.28;;;31.20;;
22525;SDS011;11429;50.842;4.386;2023-01-29T07:34:36;51.40;;;28.90;;
22525;SDS011;11429;50.842;4.386;2023-01-29T07:37:02;53.85;;;30.30;;
22525;SDS011;11429;50.842;4.386;2023-01-29T07:39:30;48.20;;;28.50;;
22525;SDS011;11429;50.842;4.386;2023-01-29T07:41:55;51.75;;;29.45;;
22525;SDS011;11429;50.842;4.386;2023-01-29T07:44:21;53.53;;;29.42;;
22525;SDS011;11429;50.842;4.386;2023-01-29T07:46:47;54.63;;;32.05;;
22525;SDS011;11429;50.842;4.386;2023-01-29T07:49:12;51.25;;;29.90;;
22525;SDS011;11429;50.842;4.386;2023-01-29T07:51:38;50.17;;;28.95;;
22525;SDS011;11429;50.842;4.386;2023-01-29T07:54:04;48.85;;;26.90;;
22525;SDS011;11429;50.842;4.386;2023-01-29T07:56:30;47.03;;;28.60;;
22525;SDS011;11429;50.842;4.386;2023-01-29T07:58:55;48.45;;;29.38;;
22525;SDS011;11429;50.842;4.386;2023-01-29T08:01:21;49.65;;;30.00;;
22525;SDS011;11429;50.842;4.386;2023-01-29T08:03:46;48.45;;;29.20;;
22525;SDS011;11429;50.842;4.386;2023-01-29T08:06:12;48.65;;;29.13;;
22525;SDS011;11429;50.842;4.386;2023-01-29T08:08:38;50.63;;;28.02;;
22525;SDS011;11429;50.842;4.386;2023-01-29T08:11:03;47.22;;;27.60;;
22525;SDS011;11429;50.842;4.386;2023-01-29T08:13:30;47.50;;;27.70;;
22525;SDS011;11429;50.842;4.386;2023-01-29T08:16:02;48.28;;;27.30;;
22525;SDS011;11429;50.842;4.386;2023-01-29T08:18:28;45.15;;;26.33;;
22525;SDS011;11429;50.842;4.386;2023-01-29T08:21:01;44.35;;;25.65;;
22525;SDS011;11429;50.842;4.386;2023-01-29T08:23:27;44.75;;;25.27;;
22525;SDS011;11429;50.842;4.386;2023-01-29T08:25:52;44.95;;;25.73;;
22525;SDS011;11429;50.842;4.386;2023-01-29T08:28:18;45.05;;;25.85;;
22525;SDS011;11429;50.842;4.386;2023-01-29T08:30:44;40.00;;;24.17;;
22525;SDS011;11429;50.842;4.386;2023-01-29T08:33:09;46.30;;;25.83;;
22525;SDS011;11429;50.842;4.386;2023-01-29T08:35:35;43.67;;;24.65;;
22525;SDS011;11429;50.842;4.386;2023-01-29T08:38:02;45.15;;;25.55;;
22525;SDS011;11429;50.842;4.386;2023-01-29T08:40:29;44.58;;;27.27;;
22525;SDS011;11429;50.842;4.386;2023-01-29T08:42:57;39.28;;;24.70;;
22525;SDS011;11429;50.842;4.386;2023-01-29T08:45:23;44.25;;;26.20;;
22525;SDS011;11429;50.842;4.386;2023-01-29T08:47:52;44.45;;;25.10;;
22525;SDS011;11429;50.842;4.386;2023-01-29T08:50:19;41.97;;;24.80;;
22525;SDS011;11429;50.842;4.386;2023-01-29T08:52:45;41.78;;;24.98;;
22525;SDS011;11429;50.842;4.386;2023-01-29T08:55:11;41.60;;;24.60;;
22525;SDS011;11429;50.842;4.386;2023-01-29T08:57:37;40.75;;;25.08;;
22525;SDS011;11429;50.842;4.386;2023-01-29T09:00:04;42.60;;;25.63;;
22525;SDS011;11429;50.842;4.386;2023-01-29T09:02:31;40.80;;;24.38;;
22525;SDS011;11429;50.842;4.386;2023-01-29T09:04:57;37.10;;;24.20;;
22525;SDS011;11429;50.842;4.386;2023-01-29T09:07:23;42.40;;;24.35;;
22525;SDS011;11429;50.842;4.386;2023-01-29T09:09:48;41.40;;;25.08;;
22525;SDS011;11429;50.842;4.386;2023-01-29T09:12:14;36.50;;;23.45;;
22525;SDS011;11429;50.842;4.386;2023-01-29T09:14:40;38.42;;;23.05;;
22525;SDS011;11429;50.842;4.386;2023-01-29T09:17:05;40.25;;;24.27;;
22525;SDS011;11429;50.842;4.386;2023-01-29T09:19:31;42.05;;;23.90;;
22525;SDS011;11429;50.842;4.386;2023-01-29T09:21:57;44.95;;;25.00;;
22525;SDS011;11429;50.842;4.386;2023-01-29T09:24:23;39.78;;;23.80;;
22525;SDS011;11429;50.842;4.386;2023-01-29T09:26:48;40.38;;;24.65;;
22525;SDS011;11429;50.842;4.386;2023-01-29T09:29:14;38.65;;;22.70;;
22525;SDS011;11429;50.842;4.386;2023-01-29T09:31:39;38.70;;;23.42;;
22525;SDS011;11429;50.842;4.386;2023-01-29T09:34:08;42.53;;;23.92;;
22525;SDS011;11429;50.842;4.386;2023-01-29T09:36:34;42.17;;;24.70;;
22525;SDS011;11429;50.842;4.386;2023-01-29T09:38:59;40.05;;;23.15;;
22525;SDS011;11429;50.842;4.386;2023-01-29T09:43:57;43.40;;;24.58;;
22525;SDS011;11429;50.842;4.386;2023-01-29T09:46:41;39.17;;;24.45;;
22525;SDS011;11429;50.842;4.386;2023-01-29T09:51:49;38.58;;;22.70;;
22525;SDS011;11429;50.842;4.386;2023-01-29T09:54:28;34.38;;;22.55;;
22525;SDS011;11429;50.842;4.386;2023-01-29T09:56:58;39.90;;;23.17;;
22525;SDS011;11429;50.842;4.386;2023-01-29T09:59:29;35.33;;;22.23;;
22525;SDS011;11429;50.842;4.386;2023-01-29T10:24:06;34.67;;;22.17;;
22525;SDS011;11429;50.842;4.386;2023-01-29T10:26:58;33.72;;;20.63;;
22525;SDS011;11429;50.842;4.386;2023-01-29T10:29:25;33.95;;;20.63;;
22525;SDS011;11429;50.842;4.386;2023-01-29T10:31:54;34.53;;;21.33;;
22525;SDS011;11429;50.842;4.386;2023-01-29T10:34:30;33.97;;;21.23;;
22525;SDS011;11429;50.842;4.386;2023-01-29T10:37:00;33.55;;;20.17;;
22525;SDS011;11429;50.842;4.386;2023-01-29T10:39:42;32.60;;;20.05;;
22525;SDS011;11429;50.842;4.386;2023-01-29T10:42:16;36.78;;;21.33;;
22525;SDS011;11429;50.842;4.386;2023-01-29T10:47:53;34.65;;;18.85;;
22525;SDS011;11429;50.842;4.386;2023-01-29T11:01:33;34.08;;;19.95;;
22525;SDS011;11429;50.842;4.386;2023-01-29T11:04:04;33.33;;;21.63;;
22525;SDS011;11429;50.842;4.386;2023-01-29T11:11:46;32.58;;;20.40;;
22525;SDS011;11429;50.842;4.386;2023-01-29T11:17:13;42.20;;;21.00;;
22525;SDS011;11429;50.842;4.386;2023-01-29T11:19:46;35.97;;;22.33;;
22525;SDS011;11429;50.842;4.386;2023-01-29T11:22:16;35.03;;;20.45;;
22525;SDS011;11429;50.842;4.386;2023-01-29T11:25:09;35.00;;;20.88;;
22525;SDS011;11429;50.842;4.386;2023-01-29T11:27:49;35.00;;;20.65;;
22525;SDS011;11429;50.842;4.386;2023-01-29T11:35:43;24.17;;;14.63;;
22525;SDS011;11429;50.842;4.386;2023-01-29T11:40:41;30.17;;;18.73;;
22525;SDS011;11429;50.842;4.386;2023-01-29T11:46:01;29.65;;;19.40;;
22525;SDS011;11429;50.842;4.386;2023-01-29T11:48:38;35.38;;;19.67;;
22525;SDS011;11429;50.842;4.386;2023-01-29T11:51:07;29.33;;;18.63;;
22525;SDS011;11429;50.842;4.386;2023-01-29T11:53:40;29.88;;;17.90;;
22525;SDS011;11429;50.842;4.386;2023-01-29T11:58:49;24.10;;;16.42;;
22525;SDS011;11429;50.842;4.386;2023-01-29T12:01:22;24.42;;;16.00;;
22525;SDS011;11429;50.842;4.386;2023-01-29T12:03:55;26.70;;;16.00;;
22525;SDS011;11429;50.842;4.386;2023-01-29T12:06:22;24.35;;;14.75;;
22525;SDS011;11429;50.842;4.386;2023-01-29T12:08:53;25.23;;;15.60;;
22525;SDS011;11429;50.842;4.386;2023-01-29T12:11:30;24.58;;;16.50;;
22525;SDS011;11429;50.842;4.386;2023-01-29T12:13:59;25.25;;;16.58;;
22525;SDS011;11429;50.842;4.386;2023-01-29T12:16:30;26.40;;;16.10;;
22525;SDS011;11429;50.842;4.386;2023-01-29T12:19:46;24.90;;;13.63;;
22525;SDS011;11429;50.842;4.386;2023-01-29T12:32:47;24.35;;;15.05;;
22525;SDS011;11429;50.842;4.386;2023-01-29T12:35:27;23.40;;;15.23;;
22525;SDS011;11429;50.842;4.386;2023-01-29T12:38:16;25.27;;;16.48;;
22525;SDS011;11429;50.842;4.386;2023-01-29T12:40:45;28.33;;;16.60;;
22525;SDS011;11429;50.842;4.386;2023-01-29T12:43:16;26.90;;;15.85;;
22525;SDS011;11429;50.842;4.386;2023-01-29T12:45:47;24.65;;;15.35;;
22525;SDS011;11429;50.842;4.386;2023-01-29T12:48:22;24.35;;;15.13;;
22525;SDS011;11429;50.842;4.386;2023-01-29T12:50:51;25.63;;;15.85;;
22525;SDS011;11429;50.842;4.386;2023-01-29T12:55:55;25.33;;;16.15;;
22525;SDS011;11429;50.842;4.386;2023-01-29T12:58:43;23.67;;;15.65;;
22525;SDS011;11429;50.842;4.386;2023-01-29T13:01:16;27.63;;;16.50;;
22525;SDS011;11429;50.842;4.386;2023-01-29T13:03:56;25.95;;;15.90;;
22525;SDS011;11429;50.842;4.386;2023-01-29T13:06:39;26.50;;;16.48;;
22525;SDS011;11429;50.842;4.386;2023-01-29T13:09:23;34.38;;;16.17;;
22525;SDS011;11429;50.842;4.386;2023-01-29T13:12:02;24.58;;;14.57;;
22525;SDS011;11429;50.842;4.386;2023-01-29T13:14:47;23.85;;;15.00;;
22525;SDS011;11429;50.842;4.386;2023-01-29T13:20:25;23.45;;;15.45;;
22525;SDS011;11429;50.842;4.386;2023-01-29T13:22:54;23.80;;;15.60;;
22525;SDS011;11429;50.842;4.386;2023-01-29T13:25:26;22.30;;;15.57;;
22525;SDS011;11429;50.842;4.386;2023-01-29T13:27:51;23.77;;;15.25;;
22525;SDS011;11429;50.842;4.386;2023-01-29T13:32:52;24.30;;;15.07;;
22525;SDS011;11429;50.842;4.386;2023-01-29T13:35:32;22.80;;;15.30;;
22525;SDS011;11429;50.842;4.386;2023-01-29T13:38:03;22.10;;;14.07;;
22525;SDS011;11429;50.842;4.386;2023-01-29T13:40:30;22.67;;;15.05;;
22525;SDS011;11429;50.842;4.386;2023-01-29T13:42:58;24.90;;;15.18;;
22525;SDS011;11429;50.842;4.386;2023-01-29T13:48:08;25.75;;;15.45;;
22525;SDS011;11429;50.842;4.386;2023-01-29T13:50:37;23.63;;;16.00;;
22525;SDS011;11429;50.842;4.386;2023-01-29T13:53:07;25.00;;;16.40;;
22525;SDS011;11429;50.842;4.386;2023-01-29T13:55:43;25.42;;;15.93;;
22525;SDS011;11429;50.842;4.386;2023-01-29T13:58:15;22.23;;;15.27;;
22525;SDS011;11429;50.842;4.386;2023-01-29T14:10:33;22.65;;;15.65;;
22525;SDS011;11429;50.842;4.386;2023-01-29T14:15:37;22.63;;;15.88;;
22525;SDS011;11429;50.842;4.386;2023-01-29T14:20:40;21.58;;;14.15;;
22525;SDS011;11429;50.842;4.386;2023-01-29T14:25:51;24.30;;;14.60;;
22525;SDS011;11429;50.842;4.386;2023-01-29T14:28:24;22.48;;;14.05;;
22525;SDS011;11429;50.842;4.386;2023-01-29T14:30:54;20.70;;;14.10;;
22525;SDS011;11429;50.842;4.386;2023-01-29T14:33:33;19.83;;;13.70;;
22525;SDS011;11429;50.842;4.386;2023-01-29T14:36:19;24.17;;;14.45;;
22525;SDS011;11429;50.842;4.386;2023-01-29T14:38:48;25.73;;;14.75;;
22525;SDS011;11429;50.842;4.386;2023-01-29T14:46:59;23.73;;;15.60;;
22525;SDS011;11429;50.842;4.386;2023-01-29T14:52:15;29.02;;;17.40;;
22525;SDS011;11429;50.842;4.386;2023-01-29T14:54:44;25.77;;;17.02;;
22525;SDS011;11429;50.842;4.386;2023-01-29T14:57:12;33.33;;;18.55;;
22525;SDS011;11429;50.842;4.386;2023-01-29T14:59:54;27.85;;;17.02;;
22525;SDS011;11429;50.842;4.386;2023-01-29T15:02:26;28.45;;;17.40;;
22525;SDS011;11429;50.842;4.386;2023-01-29T15:05:01;28.77;;;18.58;;
22525;SDS011;11429;50.842;4.386;2023-01-29T15:07:35;27.88;;;18.92;;
22525;SDS011;11429;50.842;4.386;2023-01-29T15:10:36;31.20;;;20.15;;
22525;SDS011;11429;50.842;4.386;2023-01-29T15:13:13;29.73;;;19.25;;
22525;SDS011;11429;50.842;4.386;2023-01-29T15:15:56;33.83;;;20.63;;
22525;SDS011;11429;50.842;4.386;2023-01-29T15:18:42;32.35;;;21.27;;
22525;SDS011;11429;50.842;4.386;2023-01-29T15:21:15;34.25;;;21.40;;
22525;SDS011;11429;50.842;4.386;2023-01-29T15:23:42;32.95;;;21.70;;
22525;SDS011;11429;50.842;4.386;2023-01-29T15:26:09;33.03;;;20.52;;
22525;SDS011;11429;50.842;4.386;2023-01-29T15:28:56;36.38;;;22.55;;
22525;SDS011;11429;50.842;4.386;2023-01-29T15:31:23;39.80;;;22.08;;
22525;SDS011;11429;50.842;4.386;2023-01-29T15:33:50;34.80;;;21.73;;
22525;SDS011;11429;50.842;4.386;2023-01-29T15:36:22;36.17;;;23.00;;
22525;SDS011;11429;50.842;4.386;2023-01-29T15:39:12;40.08;;;23.17;;
22525;SDS011;11429;50.842;4.386;2023-01-29T15:41:45;42.55;;;23.95;;
22525;SDS011;11429;50.842;4.386;2023-01-29T15:44:15;38.30;;;23.83;;
22525;SDS011;11429;50.842;4.386;2023-01-29T15:46:44;37.05;;;23.77;;
22525;SDS011;11429;50.842;4.386;2023-01-29T15:49:23;41.17;;;24.30;;
22525;SDS011;11429;50.842;4.386;2023-01-29T15:52:04;41.85;;;24.67;;
22525;SDS011;11429;50.842;4.386;2023-01-29T15:54:33;40.25;;;24.77;;
22525;SDS011;11429;50.842;4.386;2023-01-29T15:57:01;45.70;;;25.08;;
22525;SDS011;11429;50.842;4.386;2023-01-29T15:59:38;46.33;;;25.98;;
22525;SDS011;11429;50.842;4.386;2023-01-29T16:02:20;43.85;;;25.27;;
22525;SDS011;11429;50.842;4.386;2023-01-29T16:04:59;43.65;;;24.80;;
22525;SDS011;11429;50.842;4.386;2023-01-29T16:07:25;40.35;;;26.27;;
22525;SDS011;11429;50.842;4.386;2023-01-29T16:09:52;44.05;;;24.95;;
22525;SDS011;11429;50.842;4.386;2023-01-29T16:12:19;43.15;;;26.23;;
22525;SDS011;11429;50.842;4.386;2023-01-29T16:14:46;41.35;;;25.20;;
22525;SDS011;11429;50.842;4.386;2023-01-29T16:17:21;41.38;;;24.55;;
22525;SDS011;11429;50.842;4.386;2023-01-29T16:19:54;37.90;;;23.77;;
22525;SDS011;11429;50.842;4.386;2023-01-29T16:22:25;37.60;;;24.00;;
22525;SDS011;11429;50.842;4.386;2023-01-29T16:24:55;41.55;;;24.38;;
22525;SDS011;11429;50.842;4.386;2023-01-29T16:27:22;38.72;;;23.17;;
22525;SDS011;11429;50.842;4.386;2023-01-29T16:29:49;39.22;;;24.35;;
22525;SDS011;11429;50.842;4.386;2023-01-29T16:32:15;40.65;;;24.40;;
22525;SDS011;11429;50.842;4.386;2023-01-29T16:34:43;40.35;;;22.83;;
22525;SDS011;11429;50.842;4.386;2023-01-29T16:37:45;38.80;;;24.55;;
22525;SDS011;11429;50.842;4.386;2023-01-29T16:40:14;39.17;;;23.35;;
22525;SDS011;11429;50.842;4.386;2023-01-29T16:42:56;42.03;;;23.17;;
22525;SDS011;11429;50.842;4.386;2023-01-29T16:46:15;39.08;;;24.27;;
22525;SDS011;11429;50.842;4.386;2023-01-29T16:48:49;39.95;;;22.65;;
22525;SDS011;11429;50.842;4.386;2023-01-29T16:53:51;38.80;;;23.73;;
22525;SDS011;11429;50.842;4.386;2023-01-29T16:56:21;40.63;;;24.27;;
22525;SDS011;11429;50.842;4.386;2023-01-29T16:58:48;39.33;;;23.25;;
22525;SDS011;11429;50.842;4.386;2023-01-29T17:01:15;40.63;;;24.10;;
22525;SDS011;11429;50.842;4.386;2023-01-29T17:03:41;35.67;;;21.55;;
22525;SDS011;11429;50.842;4.386;2023-01-29T17:06:07;37.42;;;23.70;;
22525;SDS011;11429;50.842;4.386;2023-01-29T17:08:34;40.92;;;24.55;;
22525;SDS011;11429;50.842;4.386;2023-01-29T17:11:01;40.08;;;23.60;;
22525;SDS011;11429;50.842;4.386;2023-01-29T17:13:35;41.65;;;24.20;;
22525;SDS011;11429;50.842;4.386;2023-01-29T17:18:47;41.17;;;23.75;;
22525;SDS011;11429;50.842;4.386;2023-01-29T17:21:13;42.38;;;25.17;;
22525;SDS011;11429;50.842;4.386;2023-01-29T17:23:39;47.35;;;25.73;;
22525;SDS011;11429;50.842;4.386;2023-01-29T17:26:04;40.42;;;24.45;;
22525;SDS011;11429;50.842;4.386;2023-01-29T17:28:33;39.90;;;23.85;;
22525;SDS011;11429;50.842;4.386;2023-01-29T17:30:59;39.17;;;23.52;;
22525;SDS011;11429;50.842;4.386;2023-01-29T17:33:25;44.22;;;25.48;;
22525;SDS011;11429;50.842;4.386;2023-01-29T17:35:51;41.45;;;24.88;;
22525;SDS011;11429;50.842;4.386;2023-01-29T17:38:18;39.00;;;24.30;;
22525;SDS011;11429;50.842;4.386;2023-01-29T17:40:48;38.83;;;24.35;;
22525;SDS011;11429;50.842;4.386;2023-01-29T17:43:26;40.25;;;25.55;;